This is the latest recevied weather packets stored in our database for station/object SP2WPY-13. If no packets are shown the sender has not sent any weather packets the latest 10 day(s).
| Time | Temp. | Humidity | Pressure | Rain* | Wind** | Luminosity | Snow |
|---|---|---|---|---|---|---|---|
| 1777894001 | 22.22° C | 52% | 1011.9 hPa | - | - | - | - |
| 1777893682 | 23.33° C | 49% | 1011.9 hPa | - | - | - | - |
| 1777893363 | 23.33° C | 49% | 1011.9 hPa | - | - | - | - |
| 1777893088 | 22.78° C | 50% | 1011.9 hPa | - | - | - | - |
| 1777892769 | 22.78° C | 51% | 1011.9 hPa | - | - | - | - |
| 1777892493 | 22.22° C | 53% | 1011.9 hPa | - | - | - | - |
| 1777892173 | 21.67° C | 53% | 1011.9 hPa | - | - | - | - |
| 1777891899 | 22.22° C | 51% | 1011.8 hPa | - | - | - | - |
| 1777891580 | 21.67° C | 53% | 1011.9 hPa | - | - | - | - |
| 1777891305 | 22.22° C | 50% | 1012 hPa | - | - | - | - |
| 1777890986 | 22.78° C | 51% | 1011.9 hPa | - | - | - | - |
| 1777890666 | 22.22° C | 54% | 1012.1 hPa | - | - | - | - |
| 1777890392 | 21.67° C | 54% | 1012.3 hPa | - | - | - | - |
| 1777890073 | 21.67° C | 56% | 1012.2 hPa | - | - | - | - |
| 1777889800 | 21.67° C | 57% | 1012.3 hPa | - | - | - | - |
| 1777889479 | 21.67° C | 57% | 1012.5 hPa | - | - | - | - |
| 1777889204 | 21.67° C | 58% | 1012.5 hPa | - | - | - | - |
| 1777888885 | 21.11° C | 58% | 1012.5 hPa | - | - | - | - |
| 1777888565 | 21.11° C | 59% | 1012.6 hPa | - | - | - | - |
| 1777888291 | 21.11° C | 58% | 1012.5 hPa | - | - | - | - |
| 1777887972 | 21.67° C | 56% | 1012.5 hPa | - | - | - | - |
| 1777887698 | 21.67° C | 57% | 1012.2 hPa | - | - | - | - |
| 1777887378 | 22.22° C | 54% | 1012.1 hPa | - | - | - | - |
| 1777887105 | 21.67° C | 58% | 1012 hPa | - | - | - | - |
| 1777886785 | 21.11° C | 60% | 1012 hPa | - | - | - | - |
* Rain since midnight (hover to see other rain measurements)
** Current wind speed in m/s (hover to see current wind gust speed)